createdAt,value
2023-01-19T00:01:31.892Z,22.63
2023-01-19T00:03:59.498Z,22.48
2023-01-19T00:06:27.204Z,22.45
2023-01-19T00:08:54.907Z,23.42
2023-01-19T00:11:22.519Z,22.63
2023-01-19T00:13:50.901Z,24.75
2023-01-19T00:16:19.420Z,23.67
2023-01-19T00:18:47.075Z,23.52
2023-01-19T00:21:15.112Z,23.27
2023-01-19T00:23:44.068Z,26.55
2023-01-19T00:26:12.144Z,22.85
2023-01-19T00:28:39.754Z,22.90
2023-01-19T00:31:07.464Z,22.58
2023-01-19T00:33:35.125Z,23.80
2023-01-19T00:36:02.732Z,24.90
2023-01-19T00:38:30.322Z,23.52
2023-01-19T00:40:57.926Z,23.63
2023-01-19T00:43:25.632Z,23.58
2023-01-19T00:45:53.617Z,23.73
2023-01-19T00:48:21.311Z,22.77
2023-01-19T00:50:49.264Z,21.90
2023-01-19T00:53:16.910Z,22.75
2023-01-19T00:55:44.620Z,22.55
2023-01-19T00:58:12.336Z,22.55
2023-01-19T01:00:39.989Z,22.73
2023-01-19T01:03:07.807Z,23.42
2023-01-19T01:05:35.450Z,21.75
2023-01-19T01:08:03.080Z,23.17
2023-01-19T01:10:30.770Z,22.33
2023-01-19T01:12:59.052Z,22.67
2023-01-19T01:15:27.836Z,22.50
2023-01-19T01:17:56.049Z,22.63
2023-01-19T01:20:25.560Z,23.60
2023-01-19T01:22:54.049Z,26.05
2023-01-19T01:25:25.312Z,23.83
2023-01-19T01:27:53.110Z,23.33
2023-01-19T01:30:20.912Z,24.83
2023-01-19T01:32:49.047Z,24.65
2023-01-19T01:35:17.210Z,24.10
2023-01-19T01:37:44.845Z,25.15
2023-01-19T01:40:13.614Z,23.85
2023-01-19T01:42:42.503Z,23.88
2023-01-19T01:45:28.316Z,23.23
2023-01-19T01:47:58.471Z,25.17
2023-01-19T01:50:27.992Z,24.30
2023-01-19T01:53:06.473Z,26.23
2023-01-19T01:55:37.436Z,25.10
2023-01-19T01:58:05.719Z,23.77
2023-01-19T02:00:53.680Z,23.60
2023-01-19T02:03:23.430Z,22.38
2023-01-19T02:05:51.706Z,25.98
2023-01-19T02:08:56.987Z,23.38
2023-01-19T02:11:43.245Z,23.13
2023-01-19T02:14:10.872Z,23.38
2023-01-19T02:16:38.811Z,23.20
2023-01-19T02:19:07.990Z,24.33
2023-01-19T02:21:53.280Z,24.25
2023-01-19T02:24:21.110Z,23.05
2023-01-19T02:26:49.372Z,25.15
2023-01-19T02:29:21.620Z,27.58
2023-01-19T02:31:49.266Z,25.70
2023-01-19T02:34:17.801Z,26.02
2023-01-19T02:36:49.845Z,24.90
2023-01-19T02:39:19.740Z,23.95
2023-01-19T02:41:50.723Z,25.40
2023-01-19T02:44:19.299Z,25.55
2023-01-19T02:46:47.354Z,25.30
2023-01-19T02:49:14.954Z,25.10
2023-01-19T02:51:44.379Z,24.90
2023-01-19T02:54:22.067Z,23.20
2023-01-19T02:57:04.735Z,24.58
2023-01-19T02:59:52.166Z,17.60
2023-01-19T03:02:28.978Z,24.50
2023-01-19T03:04:57.040Z,24.83
2023-01-19T03:07:50.486Z,24.00
2023-01-19T03:10:18.188Z,22.17
2023-01-19T03:12:45.781Z,23.95
2023-01-19T03:15:22.308Z,25.17
2023-01-19T03:17:50.521Z,24.30
2023-01-19T03:20:20.646Z,24.27
2023-01-19T03:22:50.501Z,24.95
2023-01-19T03:25:19.418Z,25.13
2023-01-19T03:27:47.652Z,24.88
2023-01-19T03:30:18.687Z,24.45
2023-01-19T03:32:50.593Z,26.98
2023-01-19T03:35:20.223Z,24.92
2023-01-19T03:37:49.429Z,24.10
2023-01-19T03:40:17.645Z,25.80
2023-01-19T03:42:45.869Z,24.90
2023-01-19T03:45:14.032Z,25.42
2023-01-19T03:47:41.926Z,25.05
2023-01-19T03:50:14.376Z,25.58
2023-01-19T03:52:42.043Z,19.27
2023-01-19T03:55:10.406Z,21.80
2023-01-19T03:57:38.085Z,19.55
2023-01-19T04:00:05.971Z,19.15
2023-01-19T04:02:39.777Z,19.80
2023-01-19T04:05:07.581Z,18.52
2023-01-19T04:07:35.117Z,18.98
2023-01-19T04:10:02.722Z,18.05
2023-01-19T04:12:30.353Z,17.35
2023-01-19T04:14:57.961Z,17.95
2023-01-19T04:17:25.586Z,18.80
2023-01-19T04:19:53.247Z,18.73
2023-01-19T04:22:21.071Z,19.83
2023-01-19T04:24:48.693Z,20.88
2023-01-19T04:27:16.426Z,19.25
2023-01-19T04:29:44.362Z,20.55
2023-01-19T04:32:13.754Z,18.73
2023-01-19T04:34:41.386Z,20.38
2023-01-19T04:37:09.080Z,20.95
2023-01-19T04:39:36.743Z,23.30
2023-01-19T04:42:04.425Z,24.13
2023-01-19T04:44:32.121Z,24.45
2023-01-19T04:46:59.880Z,24.27
2023-01-19T04:49:27.558Z,23.65
2023-01-19T04:51:55.134Z,25.45
2023-01-19T04:54:22.753Z,23.73
2023-01-19T04:56:50.339Z,26.40
2023-01-19T04:59:17.998Z,24.52
2023-01-19T05:01:45.693Z,25.65
2023-01-19T05:04:13.349Z,25.30
2023-01-19T05:06:40.986Z,25.35
2023-01-19T05:09:09.186Z,24.92
2023-01-19T05:11:36.814Z,25.02
2023-01-19T05:14:04.441Z,23.17
2023-01-19T05:16:32.051Z,22.83
2023-01-19T05:18:59.648Z,24.35
2023-01-19T05:21:27.328Z,23.63
2023-01-19T05:23:54.930Z,23.20
2023-01-19T05:26:22.609Z,23.55
2023-01-19T05:28:50.483Z,25.02
2023-01-19T05:31:19.593Z,24.42
2023-01-19T05:33:48.277Z,35.67
2023-01-19T05:36:15.890Z,25.48
2023-01-19T05:38:43.544Z,23.77
2023-01-19T05:41:11.175Z,25.58
2023-01-19T05:43:38.757Z,22.75
2023-01-19T05:46:06.538Z,22.83
2023-01-19T05:48:34.158Z,20.42
2023-01-19T05:51:02.067Z,18.13
2023-01-19T05:53:29.934Z,16.65
2023-01-19T05:56:01.667Z,16.98
2023-01-19T05:58:29.506Z,20.48
2023-01-19T06:00:57.618Z,18.13
2023-01-19T06:03:25.393Z,16.63
2023-01-19T06:05:52.999Z,15.95
2023-01-19T06:08:20.639Z,16.00
2023-01-19T06:10:48.234Z,16.30
2023-01-19T06:13:15.904Z,14.75
2023-01-19T06:15:44.684Z,16.13
2023-01-19T06:18:12.693Z,17.10
2023-01-19T06:20:40.354Z,16.92
2023-01-19T06:23:07.901Z,16.08
2023-01-19T06:25:35.568Z,18.27
2023-01-19T06:28:03.174Z,17.10
2023-01-19T06:30:31.002Z,16.63
2023-01-19T06:32:58.837Z,16.92
2023-01-19T06:35:27.047Z,17.02
2023-01-19T06:37:54.704Z,16.23
2023-01-19T06:40:22.292Z,16.33
2023-01-19T06:42:50.149Z,17.92
2023-01-19T06:45:17.859Z,17.58
2023-01-19T06:47:48.074Z,16.10
2023-01-19T06:50:16.185Z,16.13
2023-01-19T06:52:43.791Z,16.25
2023-01-19T06:55:11.944Z,17.63
2023-01-19T06:57:40.283Z,19.75
2023-01-19T07:00:09.088Z,18.80
2023-01-19T07:02:37.734Z,17.35
2023-01-19T07:05:06.888Z,18.75
2023-01-19T07:07:34.484Z,16.50
2023-01-19T07:10:02.056Z,16.85
2023-01-19T07:12:31.130Z,16.45
2023-01-19T07:14:58.746Z,16.60
2023-01-19T07:17:26.434Z,15.30
2023-01-19T07:19:54.081Z,14.90
2023-01-19T07:22:21.677Z,15.02
2023-01-19T07:24:49.384Z,14.63
2023-01-19T07:27:16.964Z,14.63
2023-01-19T07:29:44.651Z,13.07
2023-01-19T07:32:12.334Z,12.77
2023-01-19T07:34:40.005Z,13.70
2023-01-19T07:37:07.584Z,12.05
2023-01-19T07:39:36.716Z,12.23
2023-01-19T07:42:04.583Z,12.35
2023-01-19T07:44:32.608Z,12.68
2023-01-19T07:47:00.273Z,10.52
2023-01-19T07:49:27.946Z,10.10
2023-01-19T07:51:56.443Z,9.68
2023-01-19T07:54:24.092Z,11.32
2023-01-19T07:56:54.760Z,10.75
2023-01-19T07:59:22.439Z,12.02
2023-01-19T08:01:50.102Z,11.13
2023-01-19T08:04:19.107Z,11.98
2023-01-19T08:06:47.509Z,11.48
2023-01-19T08:09:15.130Z,12.35
2023-01-19T08:11:42.767Z,13.60
2023-01-19T08:14:10.594Z,14.65
2023-01-19T08:16:38.330Z,15.32
2023-01-19T08:19:06.247Z,16.70
2023-01-19T08:21:35.543Z,12.77
2023-01-19T08:24:03.252Z,12.32
2023-01-19T08:26:32.366Z,11.70
2023-01-19T08:29:01.678Z,11.40
2023-01-19T08:31:29.605Z,11.80
2023-01-19T08:33:57.317Z,11.82
2023-01-19T08:36:25.183Z,11.70
2023-01-19T08:38:53.276Z,11.43
2023-01-19T08:41:21.239Z,11.77
2023-01-19T08:43:49.436Z,7.47
2023-01-19T08:46:17.623Z,6.25
2023-01-19T08:48:45.432Z,5.80
2023-01-19T08:51:13.447Z,6.15
2023-01-19T08:53:41.650Z,5.90
2023-01-19T08:56:13.759Z,5.97
2023-01-19T08:59:03.519Z,5.95
2023-01-19T09:01:37.176Z,5.60
2023-01-19T09:04:05.498Z,5.57
2023-01-19T09:06:33.154Z,5.18
2023-01-19T09:09:00.866Z,5.03
2023-01-19T09:11:28.595Z,4.43
2023-01-19T09:13:56.225Z,4.65
2023-01-19T09:16:23.845Z,4.40
2023-01-19T09:18:51.533Z,4.63
2023-01-19T09:21:19.297Z,3.50
2023-01-19T09:23:46.884Z,2.83
2023-01-19T09:26:14.853Z,2.08
2023-01-19T09:28:42.443Z,2.83
2023-01-19T09:31:10.247Z,3.10
2023-01-19T09:33:37.920Z,2.83
2023-01-19T09:36:05.621Z,2.65
2023-01-19T09:38:34.064Z,2.60
2023-01-19T09:41:02.013Z,2.38
2023-01-19T09:43:38.145Z,3.40
2023-01-19T09:46:12.405Z,2.53
2023-01-19T09:48:45.661Z,2.85
2023-01-19T09:53:41.246Z,2.60
2023-01-19T09:56:11.710Z,2.00
2023-01-19T09:58:39.394Z,2.60
2023-01-19T10:01:25.912Z,63.42
2023-01-19T10:03:59.765Z,7.40
2023-01-19T10:06:27.563Z,3.38
2023-01-19T10:09:00.798Z,2.65
2023-01-19T10:11:51.504Z,3.13
2023-01-19T10:14:27.763Z,3.65
2023-01-19T10:17:14.797Z,3.75
2023-01-19T10:19:46.639Z,4.82
2023-01-19T10:22:21.165Z,4.13
2023-01-19T10:24:51.166Z,4.72
2023-01-19T10:27:19.845Z,4.20
2023-01-19T10:29:47.494Z,4.70
2023-01-19T10:32:21.160Z,4.53
2023-01-19T10:34:52.323Z,4.13
2023-01-19T10:37:19.996Z,3.72
2023-01-19T10:39:56.270Z,3.97
2023-01-19T10:42:23.894Z,3.65
2023-01-19T10:44:51.640Z,3.40
2023-01-19T10:47:20.879Z,3.15
2023-01-19T10:49:49.220Z,3.47
2023-01-19T10:52:25.069Z,4.00
2023-01-19T10:54:52.836Z,3.30
2023-01-19T10:57:26.523Z,3.28
2023-01-19T10:59:54.116Z,2.80
2023-01-19T11:02:22.313Z,2.90
2023-01-19T11:07:37.840Z,2.80
2023-01-19T11:10:17.676Z,3.08
2023-01-19T11:12:47.572Z,53.45
2023-01-19T11:15:16.453Z,3.92
2023-01-19T11:17:48.145Z,15.30
2023-01-19T11:20:23.420Z,5.18
2023-01-19T11:23:05.356Z,5.82
2023-01-19T11:25:34.846Z,6.47
2023-01-19T11:28:03.632Z,5.85
2023-01-19T11:30:31.451Z,5.13
2023-01-19T11:32:59.446Z,3.45
2023-01-19T11:35:41.257Z,3.63
2023-01-19T11:38:08.817Z,3.33
2023-01-19T11:40:36.736Z,2.70
2023-01-19T11:43:04.379Z,3.20
2023-01-19T11:45:33.678Z,3.42
2023-01-19T11:48:04.266Z,3.65
2023-01-19T11:50:45.648Z,4.85
2023-01-19T11:53:29.368Z,3.28
2023-01-19T11:55:57.022Z,5.30
2023-01-19T11:58:25.258Z,3.78
2023-01-19T12:00:55.557Z,12.77
2023-01-19T12:03:31.640Z,3.13
2023-01-19T12:06:02.301Z,3.08
2023-01-19T12:08:38.127Z,3.40
2023-01-19T12:11:06.633Z,3.85
2023-01-19T12:13:36.023Z,5.38
2023-01-19T12:16:06.672Z,4.85
2023-01-19T12:18:37.683Z,3.70
2023-01-19T12:21:05.411Z,4.05
2023-01-19T12:23:38.748Z,5.60
2023-01-19T12:26:24.947Z,4.47
2023-01-19T12:28:53.740Z,5.68
2023-01-19T12:31:22.566Z,4.00
2023-01-19T12:33:50.348Z,3.65
2023-01-19T12:36:17.892Z,5.78
2023-01-19T12:38:52.244Z,5.38
2023-01-19T12:41:19.812Z,4.50
2023-01-19T12:43:48.342Z,4.35
2023-01-19T12:46:19.937Z,5.57
2023-01-19T12:48:47.828Z,4.53
2023-01-19T12:51:25.161Z,3.95
2023-01-19T12:53:53.997Z,4.60
2023-01-19T12:56:28.185Z,3.38
2023-01-19T12:58:55.793Z,1.65
2023-01-19T13:01:24.951Z,1.42
2023-01-19T13:04:00.369Z,3.20
2023-01-19T13:06:46.886Z,1.60
2023-01-19T13:09:29.575Z,1.40
2023-01-19T13:12:15.327Z,1.77
2023-01-19T13:14:43.583Z,1.42
2023-01-19T13:17:22.082Z,1.25
2023-01-19T13:19:52.938Z,1.73
2023-01-19T13:22:39.335Z,1.73
2023-01-19T13:25:14.334Z,1.77
2023-01-19T13:27:42.086Z,1.77
2023-01-19T13:30:16.670Z,1.88
2023-01-19T13:32:44.466Z,2.13
2023-01-19T13:35:18.233Z,1.92
2023-01-19T13:37:46.330Z,2.10
2023-01-19T13:40:24.975Z,1.70
2023-01-19T13:42:53.552Z,1.90
2023-01-19T13:45:27.236Z,2.25
2023-01-19T13:47:56.093Z,2.28
2023-01-19T13:50:30.897Z,2.08
2023-01-19T13:52:59.267Z,2.03
2023-01-19T13:55:28.531Z,1.85
2023-01-19T13:57:57.081Z,1.95
2023-01-19T14:00:29.040Z,1.50
2023-01-19T14:02:57.169Z,1.60
2023-01-19T14:05:24.868Z,1.70
2023-01-19T14:08:06.424Z,1.55
2023-01-19T14:10:34.702Z,1.67
2023-01-19T14:13:03.515Z,1.52
2023-01-19T14:15:32.879Z,1.60
2023-01-19T14:18:19.053Z,1.50
2023-01-19T14:21:06.105Z,1.30
2023-01-19T14:23:45.726Z,1.63
2023-01-19T14:26:32.209Z,1.60
2023-01-19T14:29:07.599Z,1.60
2023-01-19T14:31:43.388Z,1.42
2023-01-19T14:34:29.682Z,1.42
2023-01-19T14:36:57.551Z,1.58
2023-01-19T14:39:26.787Z,1.20
2023-01-19T14:41:55.116Z,1.40
2023-01-19T14:44:28.927Z,1.40
2023-01-19T14:46:58.117Z,1.70
2023-01-19T14:49:36.486Z,1.25
2023-01-19T14:52:07.162Z,1.73
2023-01-19T14:54:41.343Z,1.63
2023-01-19T14:57:13.895Z,1.30
2023-01-19T14:59:42.046Z,1.50
2023-01-19T15:02:09.774Z,2.00
2023-01-19T15:04:37.478Z,1.90
2023-01-19T15:07:05.347Z,1.60
2023-01-19T15:09:33.103Z,1.65
2023-01-19T15:12:00.796Z,2.13
2023-01-19T15:14:28.396Z,2.00
2023-01-19T15:16:56.010Z,1.80
2023-01-19T15:19:23.608Z,2.40
2023-01-19T15:21:51.181Z,1.92
2023-01-19T15:24:18.846Z,1.65
2023-01-19T15:26:46.668Z,1.70
2023-01-19T15:29:19.945Z,1.55
2023-01-19T15:31:47.597Z,1.20
2023-01-19T15:34:15.241Z,1.13
2023-01-19T15:36:42.973Z,1.27
2023-01-19T15:39:10.953Z,1.58
2023-01-19T15:41:41.253Z,1.20
2023-01-19T15:44:11.247Z,1.38
2023-01-19T15:46:38.896Z,1.10
2023-01-19T15:49:06.552Z,1.40
2023-01-19T15:51:34.199Z,1.50
2023-01-19T15:54:01.875Z,1.20
2023-01-19T15:56:30.505Z,1.45
2023-01-19T15:58:59.162Z,2.08
2023-01-19T16:01:31.531Z,3.08
2023-01-19T16:04:01.285Z,2.47
2023-01-19T16:06:29.228Z,2.40
2023-01-19T16:08:59.639Z,3.05
2023-01-19T16:11:30.627Z,2.55
2023-01-19T16:13:58.261Z,1.92
2023-01-19T16:16:28.094Z,2.35
2023-01-19T16:18:56.404Z,2.80
2023-01-19T16:21:24.220Z,3.17
2023-01-19T16:23:51.852Z,3.10
2023-01-19T16:26:27.512Z,4.28
2023-01-19T16:29:02.470Z,3.40
2023-01-19T16:31:30.149Z,3.65
2023-01-19T16:33:57.883Z,3.28
2023-01-19T16:36:27.510Z,4.22
2023-01-19T16:38:55.335Z,5.53
2023-01-19T16:41:23.060Z,4.40
2023-01-19T16:43:51.977Z,3.22
2023-01-19T16:46:27.409Z,3.28
2023-01-19T16:48:59.071Z,4.03
2023-01-19T16:51:26.894Z,3.63
2023-01-19T16:53:54.556Z,2.85
2023-01-19T16:56:22.205Z,2.67
2023-01-19T16:58:53.534Z,2.70
2023-01-19T17:01:21.236Z,2.70
2023-01-19T17:03:48.972Z,2.10
2023-01-19T17:06:22.795Z,2.42
2023-01-19T17:08:50.888Z,2.30
2023-01-19T17:11:29.003Z,2.58
2023-01-19T17:13:57.779Z,2.90
2023-01-19T17:16:26.133Z,3.95
2023-01-19T17:18:54.339Z,3.13
2023-01-19T17:21:22.067Z,4.38
2023-01-19T17:23:50.825Z,4.28
2023-01-19T17:26:18.647Z,5.20
2023-01-19T17:28:46.642Z,4.47
2023-01-19T17:31:15.541Z,2.20
2023-01-19T17:33:47.503Z,1.55
2023-01-19T17:36:25.083Z,1.42
2023-01-19T17:38:53.720Z,1.80
2023-01-19T17:41:26.471Z,2.30
2023-01-19T17:43:54.616Z,1.73
2023-01-19T17:46:23.721Z,1.70
2023-01-19T17:48:58.665Z,1.50
2023-01-19T17:51:26.791Z,2.08
2023-01-19T17:53:55.000Z,4.13
2023-01-19T17:56:26.153Z,4.25
2023-01-19T17:58:53.787Z,8.32
2023-01-19T18:01:22.479Z,3.47
2023-01-19T18:03:51.141Z,2.60
2023-01-19T18:06:18.898Z,10.20
2023-01-19T18:08:47.294Z,2.80
2023-01-19T18:11:15.550Z,3.50
2023-01-19T18:13:44.268Z,3.90
2023-01-19T18:16:13.848Z,5.55
2023-01-19T18:18:41.855Z,2.90
2023-01-19T18:21:10.441Z,2.72
2023-01-19T18:23:38.638Z,2.90
2023-01-19T18:26:11.183Z,2.47
2023-01-19T18:28:38.913Z,2.22
2023-01-19T18:31:19.697Z,2.63
2023-01-19T18:36:32.041Z,2.40
2023-01-19T18:38:59.847Z,2.38
2023-01-19T18:41:29.690Z,2.70
2023-01-19T18:43:59.119Z,2.20
2023-01-19T18:46:27.531Z,3.15
2023-01-19T18:48:55.420Z,2.58
2023-01-19T18:51:24.408Z,4.50
2023-01-19T18:53:52.023Z,4.53
2023-01-19T18:56:19.668Z,3.00
2023-01-19T18:58:47.407Z,2.30
2023-01-19T19:01:18.088Z,3.47
2023-01-19T19:03:45.962Z,4.05
2023-01-19T19:06:17.348Z,3.50
2023-01-19T19:08:44.904Z,4.80
2023-01-19T19:11:14.180Z,3.55
2023-01-19T19:13:42.091Z,3.70
2023-01-19T19:16:10.876Z,3.10
2023-01-19T19:18:39.175Z,3.53
2023-01-19T19:21:08.005Z,2.75
2023-01-19T19:23:36.674Z,3.47
2023-01-19T19:26:05.991Z,3.83
2023-01-19T19:28:33.667Z,2.95
2023-01-19T19:31:05.490Z,3.30
2023-01-19T19:33:33.207Z,3.33
2023-01-19T19:36:00.865Z,2.90
2023-01-19T19:38:29.151Z,3.80
2023-01-19T19:40:57.339Z,11.52
2023-01-19T19:43:25.400Z,19.42
2023-01-19T19:46:00.382Z,13.43
2023-01-19T19:48:28.460Z,8.65
2023-01-19T19:51:03.988Z,6.15
2023-01-19T19:53:40.102Z,16.88
2023-01-19T19:56:09.438Z,5.78
2023-01-19T19:58:38.676Z,4.00
2023-01-19T20:01:10.687Z,5.97
2023-01-19T20:03:38.744Z,5.47
2023-01-19T20:06:07.665Z,7.30
2023-01-19T20:08:35.684Z,4.43
2023-01-19T20:11:06.509Z,5.55
2023-01-19T20:13:35.423Z,6.88
2023-01-19T20:16:06.882Z,16.40
2023-01-19T20:18:34.566Z,11.10
2023-01-19T20:21:10.620Z,8.02
2023-01-19T20:23:38.176Z,9.10
2023-01-19T20:26:07.805Z,21.42
2023-01-19T20:28:35.871Z,11.73
2023-01-19T20:31:15.775Z,9.57
2023-01-19T20:33:43.795Z,8.50
2023-01-19T20:36:12.013Z,8.77
2023-01-19T20:38:40.238Z,9.10
2023-01-19T20:41:08.958Z,8.68
2023-01-19T20:43:36.571Z,8.60
2023-01-19T20:46:05.847Z,10.45
2023-01-19T20:48:33.524Z,9.43
2023-01-19T20:51:05.909Z,9.35
2023-01-19T20:53:34.060Z,9.82
2023-01-19T20:56:08.025Z,9.32
2023-01-19T20:58:35.613Z,10.15
2023-01-19T21:01:16.894Z,9.55
2023-01-19T21:03:45.794Z,9.57
2023-01-19T21:06:14.145Z,10.80
2023-01-19T21:08:41.859Z,11.18
2023-01-19T21:11:09.811Z,9.85
2023-01-19T21:13:37.809Z,10.50
2023-01-19T21:16:05.775Z,10.57
2023-01-19T21:18:33.705Z,10.50
2023-01-19T21:21:01.353Z,11.57
2023-01-19T21:23:29.033Z,14.77
2023-01-19T21:25:57.993Z,14.02
2023-01-19T21:28:26.386Z,11.23
2023-01-19T21:30:54.564Z,9.43
2023-01-19T21:33:22.514Z,9.27
2023-01-19T21:35:51.312Z,12.20
2023-01-19T21:38:19.141Z,11.75
2023-01-19T21:40:46.994Z,12.52
2023-01-19T21:43:15.052Z,12.27
2023-01-19T21:45:43.286Z,10.82
2023-01-19T21:48:10.987Z,10.48
2023-01-19T21:50:39.284Z,10.52
2023-01-19T21:56:01.787Z,15.65
2023-01-19T21:58:29.468Z,21.00
2023-01-19T22:01:05.552Z,15.23
2023-01-19T22:03:33.603Z,12.20
2023-01-19T22:06:08.641Z,9.70
2023-01-19T22:09:14.905Z,13.85
2023-01-19T22:11:42.502Z,9.45
2023-01-19T22:14:11.443Z,13.52
2023-01-19T22:16:39.098Z,9.40
2023-01-19T22:19:08.195Z,9.95
2023-01-19T22:21:36.541Z,9.45
2023-01-19T22:24:04.715Z,10.88
2023-01-19T22:26:34.234Z,9.73
2023-01-19T22:29:02.712Z,10.10
2023-01-19T22:31:31.107Z,10.93
2023-01-19T22:33:58.844Z,10.07
2023-01-19T22:36:30.514Z,9.88
2023-01-19T22:38:59.096Z,11.05
2023-01-19T22:41:30.821Z,9.95
2023-01-19T22:44:02.917Z,11.10
2023-01-19T22:46:31.670Z,8.70
2023-01-19T22:48:59.375Z,8.05
2023-01-19T22:51:27.699Z,8.65
2023-01-19T22:53:55.464Z,8.20
2023-01-19T22:56:24.699Z,9.20
2023-01-19T22:58:52.675Z,7.88
2023-01-19T23:01:21.521Z,6.85
2023-01-19T23:03:49.324Z,5.85
2023-01-19T23:06:17.906Z,5.88
2023-01-19T23:08:45.485Z,4.32
2023-01-19T23:11:14.718Z,4.57
2023-01-19T23:13:42.621Z,4.30
2023-01-19T23:16:10.663Z,4.60
2023-01-19T23:18:38.697Z,4.07
2023-01-19T23:21:16.815Z,4.57
2023-01-19T23:23:44.957Z,4.55
2023-01-19T23:26:14.239Z,4.43
2023-01-19T23:28:42.110Z,4.22
2023-01-19T23:31:17.465Z,7.10
2023-01-19T23:33:45.500Z,8.10
2023-01-19T23:36:13.441Z,7.82
2023-01-19T23:38:41.532Z,8.40
2023-01-19T23:41:09.433Z,8.32
2023-01-19T23:43:37.039Z,9.13
2023-01-19T23:46:08.900Z,9.48
2023-01-19T23:48:36.753Z,8.98
2023-01-19T23:51:11.652Z,11.25
2023-01-19T23:53:39.320Z,9.90
2023-01-19T23:56:14.924Z,10.48
2023-01-19T23:58:42.556Z,9.23
